sensor_id;sensor_type;location;lat;lon;timestamp;pressure;altitude;pressure_sealevel;temperature;humidity
13478;BME280;12598;62.382;17.344;2023-01-26T00:00:09;101025.34;;;18.31;26.36
13478;BME280;12598;62.382;17.344;2023-01-26T00:01:14;101021.94;;;18.29;26.08
13478;BME280;12598;62.382;17.344;2023-01-26T00:02:16;101012.94;;;18.30;26.52
13478;BME280;12598;62.382;17.344;2023-01-26T00:03:19;101012.22;;;18.28;26.50
13478;BME280;12598;62.382;17.344;2023-01-26T00:04:21;101013.09;;;18.29;26.33
13478;BME280;12598;62.382;17.344;2023-01-26T00:05:23;101023.81;;;18.29;26.49
13478;BME280;12598;62.382;17.344;2023-01-26T00:06:25;101025.75;;;18.27;26.31
13478;BME280;12598;62.382;17.344;2023-01-26T00:07:27;101024.91;;;18.26;26.10
13478;BME280;12598;62.382;17.344;2023-01-26T00:08:30;101017.97;;;18.24;26.07
13478;BME280;12598;62.382;17.344;2023-01-26T00:09:35;101026.47;;;18.29;26.47
13478;BME280;12598;62.382;17.344;2023-01-26T00:10:38;101029.28;;;18.27;26.47
13478;BME280;12598;62.382;17.344;2023-01-26T00:11:41;101028.69;;;18.24;26.14
13478;BME280;12598;62.382;17.344;2023-01-26T00:12:43;101034.75;;;18.26;25.98
13478;BME280;12598;62.382;17.344;2023-01-26T00:13:48;101035.72;;;18.25;26.51
13478;BME280;12598;62.382;17.344;2023-01-26T00:14:50;101032.94;;;18.26;26.18
13478;BME280;12598;62.382;17.344;2023-01-26T00:15:52;101027.69;;;18.25;26.54
13478;BME280;12598;62.382;17.344;2023-01-26T00:16:54;101026.28;;;18.21;26.18
13478;BME280;12598;62.382;17.344;2023-01-26T00:17:56;101038.56;;;18.23;26.14
13478;BME280;12598;62.382;17.344;2023-01-26T00:18:58;101040.38;;;18.23;26.24
13478;BME280;12598;62.382;17.344;2023-01-26T00:20:00;101045.03;;;18.21;26.36
13478;BME280;12598;62.382;17.344;2023-01-26T00:21:02;101054.75;;;18.22;26.36
13478;BME280;12598;62.382;17.344;2023-01-26T00:22:03;101045.88;;;18.21;26.28
13478;BME280;12598;62.382;17.344;2023-01-26T00:23:05;101021.38;;;18.07;26.38
13478;BME280;12598;62.382;17.344;2023-01-26T00:24:07;101044.31;;;18.19;26.44
13478;BME280;12598;62.382;17.344;2023-01-26T00:25:09;101031.50;;;18.13;26.62
13478;BME280;12598;62.382;17.344;2023-01-26T00:26:16;101037.16;;;18.19;26.25
13478;BME280;12598;62.382;17.344;2023-01-26T00:27:18;101037.00;;;18.21;26.33
13478;BME280;12598;62.382;17.344;2023-01-26T00:28:20;101045.31;;;18.18;26.36
13478;BME280;12598;62.382;17.344;2023-01-26T00:29:22;101044.31;;;18.19;26.14
13478;BME280;12598;62.382;17.344;2023-01-26T00:30:24;101041.81;;;18.17;26.43
13478;BME280;12598;62.382;17.344;2023-01-26T00:31:26;101043.63;;;18.17;26.19
13478;BME280;12598;62.382;17.344;2023-01-26T00:32:28;101045.31;;;18.18;26.38
13478;BME280;12598;62.382;17.344;2023-01-26T00:33:30;101044.47;;;18.17;26.48
13478;BME280;12598;62.382;17.344;2023-01-26T00:34:32;101057.00;;;18.17;26.66
13478;BME280;12598;62.382;17.344;2023-01-26T00:35:34;101043.34;;;18.10;26.61
13478;BME280;12598;62.382;17.344;2023-01-26T00:36:36;101066.00;;;18.16;26.59
13478;BME280;12598;62.382;17.344;2023-01-26T00:37:40;101066.19;;;18.14;26.34
13478;BME280;12598;62.382;17.344;2023-01-26T00:38:43;101073.22;;;18.15;26.48
13478;BME280;12598;62.382;17.344;2023-01-26T00:39:45;101075.03;;;18.15;26.45
13478;BME280;12598;62.382;17.344;2023-01-26T00:40:46;101076.03;;;18.14;26.32
13478;BME280;12598;62.382;17.344;2023-01-26T00:41:48;101074.31;;;18.13;26.26
13478;BME280;12598;62.382;17.344;2023-01-26T00:43:09;101068.00;;;18.14;26.21
13478;BME280;12598;62.382;17.344;2023-01-26T00:44:11;101079.41;;;18.16;26.13
13478;BME280;12598;62.382;17.344;2023-01-26T00:45:13;101069.13;;;18.11;26.52
13478;BME280;12598;62.382;17.344;2023-01-26T00:46:15;101068.00;;;18.14;26.66
13478;BME280;12598;62.382;17.344;2023-01-26T00:47:17;101077.16;;;18.11;26.50
13478;BME280;12598;62.382;17.344;2023-01-26T00:48:19;101084.19;;;18.12;26.61
13478;BME280;12598;62.382;17.344;2023-01-26T00:49:24;101087.72;;;18.13;26.46
13478;BME280;12598;62.382;17.344;2023-01-26T00:50:26;101090.66;;;18.10;26.68
13478;BME280;12598;62.382;17.344;2023-01-26T00:51:30;101082.22;;;18.05;26.58
13478;BME280;12598;62.382;17.344;2023-01-26T00:52:32;101110.38;;;18.09;26.76
13478;BME280;12598;62.382;17.344;2023-01-26T00:53:34;101099.69;;;18.09;26.44
13478;BME280;12598;62.382;17.344;2023-01-26T00:54:35;101112.06;;;18.10;26.72
13478;BME280;12598;62.382;17.344;2023-01-26T00:55:37;101114.91;;;18.08;26.35
13478;BME280;12598;62.382;17.344;2023-01-26T00:56:39;101122.06;;;18.08;26.30
13478;BME280;12598;62.382;17.344;2023-01-26T00:57:41;101123.06;;;18.07;26.64
13478;BME280;12598;62.382;17.344;2023-01-26T00:58:43;101116.28;;;18.03;26.44
13478;BME280;12598;62.382;17.344;2023-01-26T00:59:46;101121.25;;;18.07;26.33
13478;BME280;12598;62.382;17.344;2023-01-26T01:00:47;101129.28;;;18.07;26.62
13478;BME280;12598;62.382;17.344;2023-01-26T01:01:50;101132.78;;;18.08;26.42
13478;BME280;12598;62.382;17.344;2023-01-26T01:02:52;101125.63;;;18.08;26.75
13478;BME280;12598;62.382;17.344;2023-01-26T01:03:58;101128.41;;;18.07;26.39
13478;BME280;12598;62.382;17.344;2023-01-26T01:05:00;101117.97;;;18.04;26.47
13478;BME280;12598;62.382;17.344;2023-01-26T01:06:02;101110.25;;;18.01;26.64
13478;BME280;12598;62.382;17.344;2023-01-26T01:07:03;101127.53;;;18.06;26.45
13478;BME280;12598;62.382;17.344;2023-01-26T01:08:06;101122.19;;;18.06;26.72
13478;BME280;12598;62.382;17.344;2023-01-26T01:09:08;101111.22;;;18.00;26.62
13478;BME280;12598;62.382;17.344;2023-01-26T01:10:10;101115.31;;;18.04;26.67
13478;BME280;12598;62.382;17.344;2023-01-26T01:11:12;101126.72;;;18.06;26.38
13478;BME280;12598;62.382;17.344;2023-01-26T01:12:14;101130.06;;;17.98;26.35
13478;BME280;12598;62.382;17.344;2023-01-26T01:13:16;101129.09;;;17.99;26.53
13478;BME280;12598;62.382;17.344;2023-01-26T01:14:18;101136.56;;;18.05;26.68
13478;BME280;12598;62.382;17.344;2023-01-26T01:15:20;101129.25;;;17.98;26.45
13478;BME280;12598;62.382;17.344;2023-01-26T01:16:21;101147.41;;;18.04;27.08
13478;BME280;12598;62.382;17.344;2023-01-26T01:17:24;101144.75;;;18.04;26.73
13478;BME280;12598;62.382;17.344;2023-01-26T01:18:26;101134.59;;;17.98;26.71
13478;BME280;12598;62.382;17.344;2023-01-26T01:19:28;101150.22;;;18.02;26.53
13478;BME280;12598;62.382;17.344;2023-01-26T01:20:30;101147.53;;;18.02;26.69
13478;BME280;12598;62.382;17.344;2023-01-26T01:21:32;101149.38;;;18.02;26.44
13478;BME280;12598;62.382;17.344;2023-01-26T01:22:35;101143.59;;;17.97;26.67
13478;BME280;12598;62.382;17.344;2023-01-26T01:23:37;101151.19;;;18.01;26.50
13478;BME280;12598;62.382;17.344;2023-01-26T01:24:39;101144.03;;;18.02;26.73
13478;BME280;12598;62.382;17.344;2023-01-26T01:25:41;101138.53;;;17.94;26.61
13478;BME280;12598;62.382;17.344;2023-01-26T01:26:43;101154.88;;;18.00;26.58
13478;BME280;12598;62.382;17.344;2023-01-26T01:27:45;101148.69;;;18.00;26.79
13478;BME280;12598;62.382;17.344;2023-01-26T01:28:47;101154.03;;;18.00;26.78
13478;BME280;12598;62.382;17.344;2023-01-26T01:29:50;101157.69;;;17.99;26.72
13478;BME280;12598;62.382;17.344;2023-01-26T01:30:52;101157.69;;;17.99;26.92
13478;BME280;12598;62.382;17.344;2023-01-26T01:31:53;101152.34;;;17.99;26.52
13478;BME280;12598;62.382;17.344;2023-01-26T01:32:56;101155.03;;;17.99;26.60
13478;BME280;12598;62.382;17.344;2023-01-26T01:33:58;101167.41;;;18.00;26.85
13478;BME280;12598;62.382;17.344;2023-01-26T01:35:00;101145.44;;;17.87;nan
13478;BME280;12598;62.382;17.344;2023-01-26T01:36:05;101139.09;;;17.88;26.60
13478;BME280;12598;62.382;17.344;2023-01-26T01:37:07;101168.41;;;17.99;26.51
13478;BME280;12598;62.382;17.344;2023-01-26T01:38:09;101150.91;;;17.85;26.73
13478;BME280;12598;62.382;17.344;2023-01-26T01:39:11;101172.06;;;17.98;26.99
13478;BME280;12598;62.382;17.344;2023-01-26T01:40:13;101172.06;;;17.98;26.51
13478;BME280;12598;62.382;17.344;2023-01-26T01:41:18;101174.03;;;17.96;26.64
13478;BME280;12598;62.382;17.344;2023-01-26T01:42:21;101183.75;;;17.97;26.78
13478;BME280;12598;62.382;17.344;2023-01-26T01:43:24;101179.38;;;17.96;26.72
13478;BME280;12598;62.382;17.344;2023-01-26T01:44:26;101190.91;;;17.96;26.65
13478;BME280;12598;62.382;17.344;2023-01-26T01:45:46;101190.91;;;17.96;26.80
13478;BME280;12598;62.382;17.344;2023-01-26T01:48:01;101200.63;;;17.97;26.59
13478;BME280;12598;62.382;17.344;2023-01-26T01:49:21;101193.19;;;18.01;26.78
13478;BME280;12598;62.382;17.344;2023-01-26T01:50:26;101197.13;;;17.97;26.40
13478;BME280;12598;62.382;17.344;2023-01-26T01:51:33;101201.50;;;17.98;26.74
13478;BME280;12598;62.382;17.344;2023-01-26T01:52:36;101204.16;;;17.98;26.59
13478;BME280;12598;62.382;17.344;2023-01-26T01:53:40;101200.19;;;17.92;26.77
13478;BME280;12598;62.382;17.344;2023-01-26T01:54:47;101213.28;;;17.95;26.86
13478;BME280;12598;62.382;17.344;2023-01-26T01:55:57;101215.16;;;17.95;26.70
13478;BME280;12598;62.382;17.344;2023-01-26T01:57:02;101208.81;;;17.96;26.58
13478;BME280;12598;62.382;17.344;2023-01-26T01:58:06;101224.88;;;17.96;26.87
13478;BME280;12598;62.382;17.344;2023-01-26T01:59:10;101209.09;;;17.93;26.35
13478;BME280;12598;62.382;17.344;2023-01-26T02:00:18;101208.38;;;17.91;26.96
13478;BME280;12598;62.382;17.344;2023-01-26T02:01:22;101207.78;;;17.87;26.68
13478;BME280;12598;62.382;17.344;2023-01-26T02:02:25;101228.63;;;17.93;26.53
13478;BME280;12598;62.382;17.344;2023-01-26T02:03:28;101222.72;;;17.90;26.88
13478;BME280;12598;62.382;17.344;2023-01-26T02:04:31;101231.47;;;17.92;26.92
13478;BME280;12598;62.382;17.344;2023-01-26T02:05:54;101233.16;;;17.93;26.87
13478;BME280;12598;62.382;17.344;2023-01-26T02:06:57;101233.88;;;17.95;26.48
13478;BME280;12598;62.382;17.344;2023-01-26T02:08:02;101223.13;;;17.85;26.58
13478;BME280;12598;62.382;17.344;2023-01-26T02:09:06;101240.47;;;17.91;26.93
13478;BME280;12598;62.382;17.344;2023-01-26T02:10:09;101252.00;;;17.91;26.63
13478;BME280;12598;62.382;17.344;2023-01-26T02:11:24;101249.22;;;17.93;26.69
13478;BME280;12598;62.382;17.344;2023-01-26T02:12:29;101248.50;;;17.91;26.68
13478;BME280;12598;62.382;17.344;2023-01-26T02:13:32;101247.47;;;17.83;26.79
13478;BME280;12598;62.382;17.344;2023-01-26T02:14:37;101247.19;;;17.85;26.98
13478;BME280;12598;62.382;17.344;2023-01-26T02:15:40;101239.28;;;17.84;26.88
13478;BME280;12598;62.382;17.344;2023-01-26T02:16:42;101253.16;;;17.89;26.71
13478;BME280;12598;62.382;17.344;2023-01-26T02:17:44;101246.59;;;17.82;26.76
13478;BME280;12598;62.382;17.344;2023-01-26T02:18:46;101261.28;;;17.87;27.00
13478;BME280;12598;62.382;17.344;2023-01-26T02:19:57;101258.63;;;17.87;26.95
13478;BME280;12598;62.382;17.344;2023-01-26T02:21:06;101256.91;;;17.86;26.89
13478;BME280;12598;62.382;17.344;2023-01-26T02:22:16;101258.34;;;17.90;26.84
13478;BME280;12598;62.382;17.344;2023-01-26T02:23:35;101267.22;;;17.91;26.67
13478;BME280;12598;62.382;17.344;2023-01-26T02:24:43;101267.94;;;17.93;26.76
13478;BME280;12598;62.382;17.344;2023-01-26T02:26:47;101281.59;;;17.90;26.32
13478;BME280;12598;62.382;17.344;2023-01-26T02:27:50;101286.22;;;17.88;26.95
13478;BME280;12598;62.382;17.344;2023-01-26T02:28:52;101288.03;;;17.87;27.17
13478;BME280;12598;62.382;17.344;2023-01-26T02:29:55;101285.50;;;17.86;26.95
13478;BME280;12598;62.382;17.344;2023-01-26T02:30:57;101290.88;;;17.86;26.71
13478;BME280;12598;62.382;17.344;2023-01-26T02:32:00;101294.38;;;17.86;27.04
13478;BME280;12598;62.382;17.344;2023-01-26T02:33:02;101291.81;;;17.85;27.06
13478;BME280;12598;62.382;17.344;2023-01-26T02:34:04;101282.91;;;17.75;26.84
13478;BME280;12598;62.382;17.344;2023-01-26T02:35:07;101298.16;;;17.84;26.72
13478;BME280;12598;62.382;17.344;2023-01-26T02:36:16;101293.66;;;17.84;26.95
13478;BME280;12598;62.382;17.344;2023-01-26T02:37:18;101271.22;;;17.76;27.03
13478;BME280;12598;62.382;17.344;2023-01-26T02:38:21;101294.50;;;17.85;26.86
13478;BME280;12598;62.382;17.344;2023-01-26T02:39:43;101302.13;;;17.89;27.05
13478;BME280;12598;62.382;17.344;2023-01-26T02:40:59;101299.34;;;17.91;26.73
13478;BME280;12598;62.382;17.344;2023-01-26T02:42:03;101296.66;;;17.91;26.73
13478;BME280;12598;62.382;17.344;2023-01-26T02:43:24;101293.97;;;17.91;26.58
13478;BME280;12598;62.382;17.344;2023-01-26T02:44:28;101299.59;;;17.88;26.69
13478;BME280;12598;62.382;17.344;2023-01-26T02:45:31;101304.38;;;17.84;26.89
13478;BME280;12598;62.382;17.344;2023-01-26T02:46:34;101313.22;;;17.85;26.98
13478;BME280;12598;62.382;17.344;2023-01-26T02:47:37;101319.53;;;17.84;27.03
13478;BME280;12598;62.382;17.344;2023-01-26T02:48:41;101311.66;;;17.83;26.86
13478;BME280;12598;62.382;17.344;2023-01-26T02:50:01;101320.16;;;17.87;26.58
13478;BME280;12598;62.382;17.344;2023-01-26T02:51:04;101325.75;;;17.84;27.14
13478;BME280;12598;62.382;17.344;2023-01-26T02:52:07;101324.91;;;17.84;26.82
13478;BME280;12598;62.382;17.344;2023-01-26T02:53:09;101331.38;;;17.82;26.87
13478;BME280;12598;62.382;17.344;2023-01-26T02:54:11;101323.47;;;17.80;26.90
13478;BME280;12598;62.382;17.344;2023-01-26T02:55:33;101331.00;;;17.86;26.96
13478;BME280;12598;62.382;17.344;2023-01-26T02:56:35;101324.06;;;17.83;26.80
13478;BME280;12598;62.382;17.344;2023-01-26T02:57:43;101336.47;;;17.84;26.56
13478;BME280;12598;62.382;17.344;2023-01-26T02:58:45;101339.25;;;17.83;26.62
13478;BME280;12598;62.382;17.344;2023-01-26T02:59:47;101347.53;;;17.80;27.01
13478;BME280;12598;62.382;17.344;2023-01-26T03:00:49;101345.84;;;17.79;26.81
13478;BME280;12598;62.382;17.344;2023-01-26T03:01:52;101344.88;;;17.80;26.70
13478;BME280;12598;62.382;17.344;2023-01-26T03:02:58;101351.19;;;17.79;27.24
13478;BME280;12598;62.382;17.344;2023-01-26T03:04:01;101350.94;;;17.82;26.61
13478;BME280;12598;62.382;17.344;2023-01-26T03:05:03;101357.25;;;17.81;26.86
13478;BME280;12598;62.382;17.344;2023-01-26T03:06:06;101342.59;;;17.76;27.01
13478;BME280;12598;62.382;17.344;2023-01-26T03:07:08;101364.47;;;17.81;27.09
13478;BME280;12598;62.382;17.344;2023-01-26T03:08:10;101360.91;;;17.80;26.96
13478;BME280;12598;62.382;17.344;2023-01-26T03:09:12;101357.53;;;17.78;26.70
13478;BME280;12598;62.382;17.344;2023-01-26T03:10:15;101360.91;;;17.80;26.99
13478;BME280;12598;62.382;17.344;2023-01-26T03:11:17;101369.94;;;17.79;26.68
13478;BME280;12598;62.382;17.344;2023-01-26T03:12:19;101368.94;;;17.80;26.81
13478;BME280;12598;62.382;17.344;2023-01-26T03:13:20;101369.09;;;17.79;27.11
13478;BME280;12598;62.382;17.344;2023-01-26T03:14:22;101347.44;;;17.61;26.87
13478;BME280;12598;62.382;17.344;2023-01-26T03:15:25;101376.25;;;17.78;27.12
13478;BME280;12598;62.382;17.344;2023-01-26T03:16:44;101378.41;;;17.84;26.66
13478;BME280;12598;62.382;17.344;2023-01-26T03:17:46;101385.59;;;17.83;26.46
13478;BME280;12598;62.382;17.344;2023-01-26T03:18:48;101386.69;;;17.81;27.05
13478;BME280;12598;62.382;17.344;2023-01-26T03:20:05;101369.66;;;17.82;26.70
13478;BME280;12598;62.382;17.344;2023-01-26T03:21:27;101386.03;;;17.88;26.98
13478;BME280;12598;62.382;17.344;2023-01-26T03:22:47;101383.53;;;17.87;26.85
13478;BME280;12598;62.382;17.344;2023-01-26T03:24:10;101390.31;;;17.91;26.56
13478;BME280;12598;62.382;17.344;2023-01-26T03:25:33;101380.44;;;17.91;26.74
13478;BME280;12598;62.382;17.344;2023-01-26T03:26:53;101388.47;;;17.91;26.84
13478;BME280;12598;62.382;17.344;2023-01-26T03:28:14;101395.66;;;17.91;26.73
13478;BME280;12598;62.382;17.344;2023-01-26T03:29:16;101389.84;;;17.86;26.56
13478;BME280;12598;62.382;17.344;2023-01-26T03:30:18;101392.75;;;17.83;26.55
13478;BME280;12598;62.382;17.344;2023-01-26T03:31:22;101387.41;;;17.83;26.78
13478;BME280;12598;62.382;17.344;2023-01-26T03:32:24;101393.03;;;17.80;26.83
13478;BME280;12598;62.382;17.344;2023-01-26T03:33:27;101383.38;;;17.68;27.13
13478;BME280;12598;62.382;17.344;2023-01-26T03:34:29;101404.69;;;17.79;26.74
13478;BME280;12598;62.382;17.344;2023-01-26T03:35:32;101404.13;;;17.76;26.87
13478;BME280;12598;62.382;17.344;2023-01-26T03:36:34;101405.69;;;17.78;26.75
13478;BME280;12598;62.382;17.344;2023-01-26T03:37:43;101407.38;;;17.79;26.85
13478;BME280;12598;62.382;17.344;2023-01-26T03:38:52;101412.47;;;17.82;26.85
13478;BME280;12598;62.382;17.344;2023-01-26T03:39:55;101414.31;;;17.82;26.80
13478;BME280;12598;62.382;17.344;2023-01-26T03:41:16;101422.91;;;17.85;26.49
13478;BME280;12598;62.382;17.344;2023-01-26T03:42:37;101416.13;;;17.81;26.60
13478;BME280;12598;62.382;17.344;2023-01-26T03:43:57;101432.50;;;17.87;26.56
13478;BME280;12598;62.382;17.344;2023-01-26T03:45:18;101420.63;;;17.81;26.81
13478;BME280;12598;62.382;17.344;2023-01-26T03:46:38;101403.06;;;17.67;26.45
13478;BME280;12598;62.382;17.344;2023-01-26T03:48:07;101435.34;;;17.86;26.54
13478;BME280;12598;62.382;17.344;2023-01-26T03:49:28;101434.19;;;17.88;26.51
13478;BME280;12598;62.382;17.344;2023-01-26T03:50:48;101430.69;;;17.88;26.66
13478;BME280;12598;62.382;17.344;2023-01-26T03:52:09;101437.03;;;17.87;26.79
13478;BME280;12598;62.382;17.344;2023-01-26T03:53:29;101442.38;;;17.87;26.65
13478;BME280;12598;62.382;17.344;2023-01-26T03:54:49;101443.34;;;17.86;26.13
13478;BME280;12598;62.382;17.344;2023-01-26T03:56:10;101434.13;;;17.79;26.33
13478;BME280;12598;62.382;17.344;2023-01-26T03:57:38;101453.06;;;17.87;26.38
13478;BME280;12598;62.382;17.344;2023-01-26T03:58:40;101450.78;;;17.83;26.76
13478;BME280;12598;62.382;17.344;2023-01-26T03:59:42;101452.13;;;17.77;26.54
13478;BME280;12598;62.382;17.344;2023-01-26T04:00:49;101464.69;;;17.77;26.66
13478;BME280;12598;62.382;17.344;2023-01-26T04:01:51;101464.94;;;17.74;26.75
13478;BME280;12598;62.382;17.344;2023-01-26T04:03:12;101464.53;;;17.78;26.72
13478;BME280;12598;62.382;17.344;2023-01-26T04:04:32;101457.22;;;17.80;26.67
13478;BME280;12598;62.382;17.344;2023-01-26T04:05:59;101471.31;;;17.82;26.68
13478;BME280;12598;62.382;17.344;2023-01-26T04:07:22;101467.66;;;17.83;26.68
13478;BME280;12598;62.382;17.344;2023-01-26T04:08:45;101462.31;;;17.83;26.54
13478;BME280;12598;62.382;17.344;2023-01-26T04:09:47;101460.31;;;17.76;26.67
13478;BME280;12598;62.382;17.344;2023-01-26T04:10:50;101448.16;;;17.72;26.55
13478;BME280;12598;62.382;17.344;2023-01-26T04:11:52;101466.75;;;17.73;26.49
13478;BME280;12598;62.382;17.344;2023-01-26T04:12:54;101452.72;;;17.60;26.64
13478;BME280;12598;62.382;17.344;2023-01-26T04:14:21;101467.47;;;17.75;26.49
13478;BME280;12598;62.382;17.344;2023-01-26T04:15:57;101465.25;;;17.80;26.60
13478;BME280;12598;62.382;17.344;2023-01-26T04:17:18;101473.28;;;17.80;26.41
13478;BME280;12598;62.382;17.344;2023-01-26T04:18:38;101465.38;;;17.79;26.48
13478;BME280;12598;62.382;17.344;2023-01-26T04:19:59;101462.38;;;17.72;26.54
13478;BME280;12598;62.382;17.344;2023-01-26T04:21:19;101465.50;;;17.77;nan
13478;BME280;12598;62.382;17.344;2023-01-26T04:22:27;101475.50;;;17.75;26.38
13478;BME280;12598;62.382;17.344;2023-01-26T04:23:30;101475.75;;;17.72;26.54
13478;BME280;12598;62.382;17.344;2023-01-26T04:24:32;101480.53;;;17.69;26.45
13478;BME280;12598;62.382;17.344;2023-01-26T04:25:34;101476.97;;;17.68;26.58
13478;BME280;12598;62.382;17.344;2023-01-26T04:26:35;101487.81;;;17.67;26.58
13478;BME280;12598;62.382;17.344;2023-01-26T04:27:42;101484.28;;;17.66;26.53
13478;BME280;12598;62.382;17.344;2023-01-26T04:28:44;101478.94;;;17.66;26.52
13478;BME280;12598;62.382;17.344;2023-01-26T04:29:46;101478.09;;;17.66;26.73
13478;BME280;12598;62.382;17.344;2023-01-26T04:30:48;101472.75;;;17.66;26.75
13478;BME280;12598;62.382;17.344;2023-01-26T04:31:50;101467.78;;;17.61;26.45
13478;BME280;12598;62.382;17.344;2023-01-26T04:32:54;101484.28;;;17.66;26.60
13478;BME280;12598;62.382;17.344;2023-01-26T04:33:58;101479.91;;;17.65;26.70
13478;BME280;12598;62.382;17.344;2023-01-26T04:35:00;101447.88;;;17.43;26.51
13478;BME280;12598;62.382;17.344;2023-01-26T04:36:05;101493.28;;;17.65;26.69
13478;BME280;12598;62.382;17.344;2023-01-26T04:37:11;101489.63;;;17.66;26.60
13478;BME280;12598;62.382;17.344;2023-01-26T04:38:19;101489.53;;;17.68;26.51
13478;BME280;12598;62.382;17.344;2023-01-26T04:39:22;101499.34;;;17.67;26.70
13478;BME280;12598;62.382;17.344;2023-01-26T04:40:27;101495.84;;;17.67;26.33
13478;BME280;12598;62.382;17.344;2023-01-26T04:41:30;101505.69;;;17.66;26.35
13478;BME280;12598;62.382;17.344;2023-01-26T04:42:37;101502.19;;;17.66;26.31
13478;BME280;12598;62.382;17.344;2023-01-26T04:43:40;101504.84;;;17.66;26.25
13478;BME280;12598;62.382;17.344;2023-01-26T04:44:42;101510.19;;;17.66;26.61
13478;BME280;12598;62.382;17.344;2023-01-26T04:45:44;101511.13;;;17.65;26.18
13478;BME280;12598;62.382;17.344;2023-01-26T04:46:46;101513.81;;;17.65;26.48
13478;BME280;12598;62.382;17.344;2023-01-26T04:47:50;101512.88;;;17.66;26.21
13478;BME280;12598;62.382;17.344;2023-01-26T04:48:52;101506.66;;;17.65;26.58
13478;BME280;12598;62.382;17.344;2023-01-26T04:49:54;101506.66;;;17.65;26.53
13478;BME280;12598;62.382;17.344;2023-01-26T04:51:02;101507.63;;;17.64;26.42
13478;BME280;12598;62.382;17.344;2023-01-26T04:52:05;101509.22;;;17.67;26.22
13478;BME280;12598;62.382;17.344;2023-01-26T04:53:08;101508.34;;;17.66;26.55
13478;BME280;12598;62.382;17.344;2023-01-26T04:54:11;101520.03;;;17.65;26.16
13478;BME280;12598;62.382;17.344;2023-01-26T04:55:16;101509.22;;;17.67;26.33
13478;BME280;12598;62.382;17.344;2023-01-26T04:57:24;101512.00;;;17.65;26.08
13478;BME280;12598;62.382;17.344;2023-01-26T04:58:26;101504.25;;;17.62;26.28
13478;BME280;12598;62.382;17.344;2023-01-26T04:59:29;101501.09;;;17.57;25.94
13478;BME280;12598;62.382;17.344;2023-01-26T05:00:34;101514.69;;;17.65;26.29
13478;BME280;12598;62.382;17.344;2023-01-26T05:01:37;101505.78;;;17.65;26.26
13478;BME280;12598;62.382;17.344;2023-01-26T05:02:40;101510.19;;;17.66;26.00
13478;BME280;12598;62.382;17.344;2023-01-26T05:03:43;101516.50;;;17.65;26.34
13478;BME280;12598;62.382;17.344;2023-01-26T05:04:46;101510.31;;;17.64;26.13
13478;BME280;12598;62.382;17.344;2023-01-26T05:05:51;101518.34;;;17.64;26.06
13478;BME280;12598;62.382;17.344;2023-01-26T05:06:54;101514.78;;;17.64;26.05
13478;BME280;12598;62.382;17.344;2023-01-26T05:07:59;101521.00;;;17.64;26.20
13478;BME280;12598;62.382;17.344;2023-01-26T05:09:04;101520.13;;;17.64;25.94
13478;BME280;12598;62.382;17.344;2023-01-26T05:10:08;101526.59;;;17.61;25.99
13478;BME280;12598;62.382;17.344;2023-01-26T05:11:37;101524.16;;;17.69;25.79
13478;BME280;12598;62.382;17.344;2023-01-26T05:13:14;101531.66;;;17.75;25.93
13478;BME280;12598;62.382;17.344;2023-01-26T05:14:39;101528.97;;;17.75;25.83
13478;BME280;12598;62.382;17.344;2023-01-26T05:15:54;101498.06;;;17.51;25.68
13478;BME280;12598;62.382;17.344;2023-01-26T05:17:19;101537.16;;;17.74;25.60
13478;BME280;12598;62.382;17.344;2023-01-26T05:18:28;101536.53;;;17.70;25.56
13478;BME280;12598;62.382;17.344;2023-01-26T05:19:38;101541.16;;;17.68;26.01
13478;BME280;12598;62.382;17.344;2023-01-26T05:20:51;101540.97;;;17.60;25.97
13478;BME280;12598;62.382;17.344;2023-01-26T05:21:59;101552.00;;;17.67;26.01
13478;BME280;12598;62.382;17.344;2023-01-26T05:23:02;101550.41;;;17.64;25.92
13478;BME280;12598;62.382;17.344;2023-01-26T05:24:23;101545.78;;;17.66;25.81
13478;BME280;12598;62.382;17.344;2023-01-26T05:25:45;101554.53;;;17.68;25.61
13478;BME280;12598;62.382;17.344;2023-01-26T05:26:47;101542.03;;;17.58;25.77
13478;BME280;12598;62.382;17.344;2023-01-26T05:28:09;101552.00;;;17.67;25.84
13478;BME280;12598;62.382;17.344;2023-01-26T05:29:11;101555.78;;;17.64;26.15
13478;BME280;12598;62.382;17.344;2023-01-26T05:30:14;101550.69;;;17.61;25.98
13478;BME280;12598;62.382;17.344;2023-01-26T05:31:16;101546.81;;;17.54;26.12
13478;BME280;12598;62.382;17.344;2023-01-26T05:32:18;101559.78;;;17.59;26.16
13478;BME280;12598;62.382;17.344;2023-01-26T05:33:20;101561.75;;;17.57;25.87
13478;BME280;12598;62.382;17.344;2023-01-26T05:34:23;101563.56;;;17.56;25.78
13478;BME280;12598;62.382;17.344;2023-01-26T05:35:25;101568.94;;;17.56;26.13
13478;BME280;12598;62.382;17.344;2023-01-26T05:36:27;101576.94;;;17.56;26.08
13478;BME280;12598;62.382;17.344;2023-01-26T05:37:30;101574.28;;;17.56;25.84
13478;BME280;12598;62.382;17.344;2023-01-26T05:38:33;101550.47;;;17.42;25.82
13478;BME280;12598;62.382;17.344;2023-01-26T05:39:35;101581.44;;;17.56;25.90
13478;BME280;12598;62.382;17.344;2023-01-26T05:40:39;101585.94;;;17.55;25.80
13478;BME280;12598;62.382;17.344;2023-01-26T05:41:41;101590.31;;;17.56;25.95
13478;BME280;12598;62.382;17.344;2023-01-26T05:43:03;101589.09;;;17.60;26.08
13478;BME280;12598;62.382;17.344;2023-01-26T05:44:27;101583.75;;;17.60;25.95
13478;BME280;12598;62.382;17.344;2023-01-26T05:45:37;101594.19;;;17.63;25.67